Rechercher aéroport 
image banner adimage banner ad
image banner ad

DATM - Bordj Mokhtar

Situé à Bordj Mokhtar, Algeria

ICAO - DATM, IATA - BMW

Données fournies par Airmate  

Information générale

Coordonnées: N21°22'30" E0°55'26"
Élévation : 1302 feet MSL.
 
Voir autres Aéroports à Adrar Province

Données opérationnelles

Accessible au public
Heure actuelle UTC:
Heure actuelle locale:
Météo
TAF: TAF DATM 281700Z 2818/2903 14008KT CAVOK
Voir NOTAMs / SUP AIP / TFR affectant cet aéroport [VIEW]
Fréquences de communication: [VIEW]

Pistes:

Identifiant RWYQFULongueur (ft)Largeur (ft)SurfaceLDA (ft)
0878°7372148UNK
26258°9843148

Coordonnées de l'aéroport

Adresse: Bordj Mokhtar Algeria

Vue satellite de DATM